Time;durP1;ratioP1;P1;durP2;ratioP2;P2;SDS_P1;SDS_P2;PMS_P1;PMS_P2;Temp;Humidity;BMP_temperature;BMP_pressure;BME280_temperature;BME280_humidity;BME280_pressure;Samples;Min_cycle;Max_cycle;Signal;HPM_P1;HPM_P2
2022/04/28 00:00:01;;;;;;;11.55;5.30;;;;;;;;;;5072140;28;20049;-70
2022/04/28 00:02:28;;;;;;;7.53;4.82;;;;;;;;;;5072732;28;20519;-70
2022/04/28 00:04:55;;;;;;;10.07;4.55;;;;;;;;;;5056061;28;20081;-70
2022/04/28 00:07:21;;;;;;;11.02;5.13;;;;;;;;;;5072239;28;20056;-71
2022/04/28 00:09:48;;;;;;;10.43;5.55;;;;;;;;;;5068575;28;20143;-70
2022/04/28 00:12:14;;;;;;;13.38;4.80;;;;;;;;;;5059979;28;20057;-70
2022/04/28 00:14:43;;;;;;;12.32;4.88;;;;;;;;;;5071402;28;20056;-69
2022/04/28 00:17:10;;;;;;;8.43;4.93;;;;;;;;;;5071333;28;20055;-70
2022/04/28 00:19:36;;;;;;;10.35;5.25;;;;;;;;;;5071231;28;20049;-70
2022/04/28 00:22:03;;;;;;;7.82;4.55;;;;;;;;;;5054915;28;20049;-70
2022/04/28 00:24:30;;;;;;;8.20;5.22;;;;;;;;;;5052186;28;20080;-70
2022/04/28 00:26:56;;;;;;;9.40;5.32;;;;;;;;;;5069018;28;20057;-70
2022/04/28 00:29:22;;;;;;;12.68;5.78;;;;;;;;;;5069695;28;20056;-70
2022/04/28 00:31:49;;;;;;;9.95;5.10;;;;;;;;;;5057684;28;20108;-70
2022/04/28 00:34:15;;;;;;;8.18;4.82;;;;;;;;;;5052449;28;20057;-70
2022/04/28 00:36:41;;;;;;;8.25;5.45;;;;;;;;;;5070685;28;20550;-71
2022/04/28 00:39:07;;;;;;;8.85;4.93;;;;;;;;;;5070375;28;20210;-70
2022/04/28 00:41:34;;;;;;;10.10;5.70;;;;;;;;;;5071299;28;20412;-70
2022/04/28 00:44:00;;;;;;;15.88;5.32;;;;;;;;;;5061355;28;20053;-70
2022/04/28 00:46:26;;;;;;;9.27;5.32;;;;;;;;;;5066178;28;20055;-70
2022/04/28 00:51:40;;;;;;;10.68;4.82;;;;;;;;;;5056213;28;20144;-69
2022/04/28 00:54:07;;;;;;;10.35;5.53;;;;;;;;;;5051494;28;20108;-69
2022/04/28 00:56:34;;;;;;;9.80;5.47;;;;;;;;;;5051919;28;20501;-69
2022/04/28 00:59:02;;;;;;;9.30;5.65;;;;;;;;;;5062648;28;20049;-69
2022/04/28 01:01:29;;;;;;;8.88;4.82;;;;;;;;;;5061157;28;20049;-68
2022/04/28 01:03:56;;;;;;;10.35;5.80;;;;;;;;;;5059882;28;20528;-69
2022/04/28 01:06:22;;;;;;;11.20;5.22;;;;;;;;;;5071068;28;20049;-70
2022/04/28 01:08:48;;;;;;;10.48;5.22;;;;;;;;;;5052363;28;20056;-69
2022/04/28 01:11:16;;;;;;;9.55;4.85;;;;;;;;;;5056255;28;20075;-69
2022/04/28 01:13:43;;;;;;;14.25;5.88;;;;;;;;;;5069468;28;20464;-71
2022/04/28 01:16:09;;;;;;;10.43;4.65;;;;;;;;;;5070122;28;20064;-69
2022/04/28 01:18:36;;;;;;;8.65;5.05;;;;;;;;;;5072027;28;20057;-69
2022/04/28 01:21:03;;;;;;;13.35;5.85;;;;;;;;;;5070836;28;20504;-69
2022/04/28 01:23:33;;;;;;;8.20;5.47;;;;;;;;;;5065450;28;20408;-69
2022/04/28 01:25:59;;;;;;;11.40;6.18;;;;;;;;;;5070675;28;20055;-69
2022/04/28 01:28:29;;;;;;;11.70;5.65;;;;;;;;;;5069747;28;20057;-70
2022/04/28 01:30:56;;;;;;;11.45;5.57;;;;;;;;;;5060757;28;20519;-70
2022/04/28 01:33:22;;;;;;;11.15;5.18;;;;;;;;;;5068240;28;20167;-70
2022/04/28 01:35:48;;;;;;;10.32;5.68;;;;;;;;;;5075179;28;20488;-69
2022/04/28 01:38:14;;;;;;;12.10;6.15;;;;;;;;;;5074327;28;20053;-70
2022/04/28 01:40:41;;;;;;;12.85;5.90;;;;;;;;;;5074244;28;20063;-70
2022/04/28 01:43:07;;;;;;;9.77;5.60;;;;;;;;;;5073515;28;20059;-70
2022/04/28 01:45:33;;;;;;;8.80;5.28;;;;;;;;;;5065949;28;20394;-71
2022/04/28 01:47:59;;;;;;;12.20;6.32;;;;;;;;;;5073099;28;20107;-70
2022/04/28 01:50:26;;;;;;;9.95;5.47;;;;;;;;;;5063947;28;20059;-71
2022/04/28 01:55:37;;;;;;;8.97;5.40;;;;;;;;;;5070575;28;20060;-70
2022/04/28 01:58:03;;;;;;;12.63;5.70;;;;;;;;;;5058520;28;20093;-70
2022/04/28 02:00:30;;;;;;;12.68;5.78;;;;;;;;;;5073482;28;20049;-70
2022/04/28 02:02:56;;;;;;;10.15;6.60;;;;;;;;;;5065980;28;20495;-70
2022/04/28 02:05:23;;;;;;;11.60;5.93;;;;;;;;;;5074393;28;20523;-70
2022/04/28 02:07:49;;;;;;;10.38;6.50;;;;;;;;;;5072646;28;20061;-70
2022/04/28 02:10:15;;;;;;;11.07;6.30;;;;;;;;;;5068431;28;20064;-70
2022/04/28 02:12:42;;;;;;;15.27;6.32;;;;;;;;;;5069758;28;20167;-70
2022/04/28 02:15:08;;;;;;;13.07;6.05;;;;;;;;;;5064766;28;20071;-70
2022/04/28 02:17:36;;;;;;;15.68;6.43;;;;;;;;;;5068051;28;20059;-70
2022/04/28 02:20:03;;;;;;;11.45;6.07;;;;;;;;;;5073183;28;20060;-70
2022/04/28 02:22:29;;;;;;;9.57;6.18;;;;;;;;;;5074539;28;20049;-70
2022/04/28 02:24:56;;;;;;;12.30;6.32;;;;;;;;;;5073045;28;20049;-71
2022/04/28 02:27:24;;;;;;;12.88;6.20;;;;;;;;;;5064378;28;20053;-69
2022/04/28 02:29:51;;;;;;;13.23;6.22;;;;;;;;;;5054288;28;20054;-70
2022/04/28 02:32:17;;;;;;;7.95;5.38;;;;;;;;;;5062186;28;20477;-70
2022/04/28 02:34:43;;;;;;;12.57;5.97;;;;;;;;;;5073733;28;20053;-70
2022/04/28 02:37:10;;;;;;;12.07;6.55;;;;;;;;;;5073555;28;20057;-70
2022/04/28 02:39:36;;;;;;;19.52;6.85;;;;;;;;;;5073433;28;20060;-70
2022/04/28 02:42:02;;;;;;;17.52;6.93;;;;;;;;;;5073724;28;20527;-69
2022/04/28 02:44:29;;;;;;;13.00;6.25;;;;;;;;;;5072272;28;20562;-70
2022/04/28 02:46:55;;;;;;;9.65;5.95;;;;;;;;;;5067505;28;20055;-70
2022/04/28 02:49:21;;;;;;;12.27;6.55;;;;;;;;;;5070618;28;20053;-69
2022/04/28 02:51:48;;;;;;;11.32;6.47;;;;;;;;;;5072936;28;20053;-69
2022/04/28 02:54:14;;;;;;;12.73;6.38;;;;;;;;;;5072481;28;20436;-69
2022/04/28 02:56:40;;;;;;;11.73;6.40;;;;;;;;;;5069072;28;20503;-69
2022/04/28 02:59:06;;;;;;;10.65;5.60;;;;;;;;;;5072411;28;20053;-69
2022/04/28 03:01:33;;;;;;;15.45;6.53;;;;;;;;;;5062784;28;20053;-69
2022/04/28 03:03:59;;;;;;;9.68;6.40;;;;;;;;;;5069806;28;20521;-70
2022/04/28 03:11:56;;;;;;;12.30;7.38;;;;;;;;;;5070898;28;20051;-71
2022/04/28 03:14:23;;;;;;;13.23;6.50;;;;;;;;;;5065805;28;20055;-70
2022/04/28 03:16:49;;;;;;;13.98;6.47;;;;;;;;;;5073569;28;20059;-70
2022/04/28 03:19:15;;;;;;;12.43;6.68;;;;;;;;;;5072508;28;20083;-70
2022/04/28 03:21:42;;;;;;;12.43;6.63;;;;;;;;;;5067689;28;20056;-70
2022/04/28 03:24:10;;;;;;;17.27;7.10;;;;;;;;;;5072165;28;20057;-69
2022/04/28 03:26:38;;;;;;;9.43;5.70;;;;;;;;;;5072153;28;20420;-70
2022/04/28 03:29:05;;;;;;;9.52;6.50;;;;;;;;;;5072678;28;20260;-70
2022/04/28 03:31:31;;;;;;;8.90;6.20;;;;;;;;;;5071966;28;20511;-70
2022/04/28 03:33:58;;;;;;;16.92;7.50;;;;;;;;;;5060887;28;20525;-70
2022/04/28 03:39:10;;;;;;;12.63;7.03;;;;;;;;;;5072102;28;20063;-70
2022/04/28 03:41:37;;;;;;;11.85;6.35;;;;;;;;;;5072140;28;20059;-70
2022/04/28 03:44:03;;;;;;;14.80;6.25;;;;;;;;;;5066273;28;20053;-70
2022/04/28 03:46:29;;;;;;;14.02;6.68;;;;;;;;;;5067540;28;20100;-70
2022/04/28 03:48:56;;;;;;;10.60;6.50;;;;;;;;;;5071265;28;20139;-70
2022/04/28 03:51:22;;;;;;;11.95;6.38;;;;;;;;;;5067861;28;20250;-70
2022/04/28 03:53:48;;;;;;;12.95;6.30;;;;;;;;;;5070431;28;20053;-69
2022/04/28 03:56:15;;;;;;;15.93;6.35;;;;;;;;;;5071459;28;20057;-68
2022/04/28 03:58:41;;;;;;;12.70;6.50;;;;;;;;;;5071245;28;20057;-68
2022/04/28 04:01:07;;;;;;;8.98;6.80;;;;;;;;;;5070832;28;20049;-69
2022/04/28 04:03:34;;;;;;;8.18;5.85;;;;;;;;;;5064404;28;20063;-69
2022/04/28 04:06:00;;;;;;;12.35;6.50;;;;;;;;;;5055339;28;20053;-69
2022/04/28 04:08:26;;;;;;;11.70;6.30;;;;;;;;;;5052597;28;20474;-69
2022/04/28 04:10:52;;;;;;;12.40;6.75;;;;;;;;;;5065437;28;20057;-69
2022/04/28 04:13:19;;;;;;;18.30;7.22;;;;;;;;;;5066069;28;20055;-69
2022/04/28 04:15:45;;;;;;;12.52;6.80;;;;;;;;;;5071021;28;20492;-69
2022/04/28 04:18:12;;;;;;;11.88;6.82;;;;;;;;;;5071990;28;20103;-69
2022/04/28 04:20:39;;;;;;;12.32;6.10;;;;;;;;;;5069940;28;20059;-68
2022/04/28 04:23:05;;;;;;;17.42;6.70;;;;;;;;;;5071909;28;20052;-69
2022/04/28 04:25:32;;;;;;;11.55;6.93;;;;;;;;;;5072171;28;20083;-68
2022/04/28 04:28:00;;;;;;;12.77;6.85;;;;;;;;;;5067411;28;20048;-70
2022/04/28 04:33:11;;;;;;;12.25;6.75;;;;;;;;;;5059923;28;20457;-69
2022/04/28 04:35:37;;;;;;;15.02;6.45;;;;;;;;;;5068036;28;20510;-69
2022/04/28 04:38:03;;;;;;;12.10;7.03;;;;;;;;;;5070813;28;20049;-69
2022/04/28 04:40:31;;;;;;;11.68;6.35;;;;;;;;;;5070900;28;20531;-69
2022/04/28 04:42:57;;;;;;;11.98;6.70;;;;;;;;;;5071569;28;20057;-69
2022/04/28 04:45:23;;;;;;;14.55;7.05;;;;;;;;;;5071832;28;20506;-69
2022/04/28 04:47:50;;;;;;;12.20;6.03;;;;;;;;;;5069823;28;20060;-70
2022/04/28 04:50:16;;;;;;;16.75;6.88;;;;;;;;;;5070810;28;20053;-69
2022/04/28 04:52:42;;;;;;;14.85;7.63;;;;;;;;;;5060953;28;20423;-69
2022/04/28 04:55:12;;;;;;;11.82;6.38;;;;;;;;;;5067937;28;20071;-69
2022/04/28 04:57:39;;;;;;;10.63;6.07;;;;;;;;;;5071391;28;20060;-69
2022/04/28 05:00:05;;;;;;;14.55;6.80;;;;;;;;;;5068207;28;20060;-70
2022/04/28 05:02:32;;;;;;;16.20;7.30;;;;;;;;;;5055933;28;20057;-69
2022/04/28 05:04:58;;;;;;;17.83;6.07;;;;;;;;;;5054349;28;20056;-69
2022/04/28 05:07:29;;;;;;;10.30;6.85;;;;;;;;;;5059440;28;20071;-69
2022/04/28 05:09:55;;;;;;;10.90;6.95;;;;;;;;;;5060272;28;20061;-69
2022/04/28 05:12:21;;;;;;;16.00;7.22;;;;;;;;;;5060523;28;20512;-70
2022/04/28 05:14:48;;;;;;;9.88;6.40;;;;;;;;;;5064949;28;20510;-70
2022/04/28 05:17:15;;;;;;;14.55;7.00;;;;;;;;;;5055665;28;20515;-70
2022/04/28 05:19:41;;;;;;;17.73;6.82;;;;;;;;;;5054865;28;20061;-69
2022/04/28 05:22:07;;;;;;;13.95;7.05;;;;;;;;;;5055217;28;20057;-69
2022/04/28 05:24:34;;;;;;;14.10;6.75;;;;;;;;;;5054767;28;20144;-69
2022/04/28 05:27:00;;;;;;;10.73;6.60;;;;;;;;;;5071848;28;20057;-69
2022/04/28 05:29:27;;;;;;;23.65;7.35;;;;;;;;;;5065764;28;20057;-69
2022/04/28 05:31:53;;;;;;;11.10;6.00;;;;;;;;;;5073312;28;20439;-69
2022/04/28 05:34:19;;;;;;;13.82;6.38;;;;;;;;;;5075006;28;20059;-69
2022/04/28 05:36:46;;;;;;;11.45;6.53;;;;;;;;;;5061892;28;20093;-69
2022/04/28 05:39:18;;;;;;;9.55;6.40;;;;;;;;;;5058849;28;20132;-69
2022/04/28 05:41:44;;;;;;;12.07;5.60;;;;;;;;;;5065106;28;20053;-74
2022/04/28 05:46:56;;;;;;;13.05;6.05;;;;;;;;;;5057470;28;20111;-72
2022/04/28 05:49:25;;;;;;;14.88;6.07;;;;;;;;;;5062168;28;20056;-74
2022/04/28 05:51:52;;;;;;;13.05;6.13;;;;;;;;;;5060525;28;20052;-75
2022/04/28 05:54:19;;;;;;;9.85;5.70;;;;;;;;;;5060553;28;20065;-73
2022/04/28 05:56:45;;;;;;;22.50;6.93;;;;;;;;;;5058852;28;20058;-73
2022/04/28 05:59:11;;;;;;;14.43;5.25;;;;;;;;;;5059387;28;20140;-75
2022/04/28 06:01:38;;;;;;;11.75;5.43;;;;;;;;;;5061427;28;20053;-75
2022/04/28 06:04:06;;;;;;;14.63;5.93;;;;;;;;;;5060366;28;20051;-74
2022/04/28 06:06:38;;;;;;;14.40;5.95;;;;;;;;;;5059945;28;20057;-73
2022/04/28 06:09:04;;;;;;;16.30;6.63;;;;;;;;;;5065415;28;20102;-74
2022/04/28 06:11:31;;;;;;;10.10;5.50;;;;;;;;;;5064416;28;20050;-73
2022/04/28 06:13:58;;;;;;;12.00;5.32;;;;;;;;;;5067700;28;20056;-73
2022/04/28 06:16:24;;;;;;;11.80;5.55;;;;;;;;;;5066868;28;20063;-75
2022/04/28 06:18:50;;;;;;;9.77;5.68;;;;;;;;;;5066752;28;20056;-75
2022/04/28 06:21:17;;;;;;;9.52;5.65;;;;;;;;;;5060811;28;20064;-75
2022/04/28 06:23:45;;;;;;;13.15;5.80;;;;;;;;;;5061690;28;20077;-75
2022/04/28 06:26:11;;;;;;;14.00;6.75;;;;;;;;;;5062101;28;20069;-73
2022/04/28 06:28:37;;;;;;;9.27;4.90;;;;;;;;;;5062398;28;20436;-74
2022/04/28 06:31:04;;;;;;;17.20;6.25;;;;;;;;;;5062184;28;20049;-75
2022/04/28 06:33:30;;;;;;;15.13;4.88;;;;;;;;;;5059911;28;20061;-74
2022/04/28 06:35:57;;;;;;;14.82;5.25;;;;;;;;;;5058484;28;20157;-74
2022/04/28 06:38:24;;;;;;;12.82;5.28;;;;;;;;;;5067811;28;20464;-73
2022/04/28 06:40:50;;;;;;;8.95;4.63;;;;;;;;;;5070656;28;20057;-76
2022/04/28 06:43:16;;;;;;;9.10;5.22;;;;;;;;;;5060698;28;20049;-75
2022/04/28 06:46:11;;;;;;;10.02;5.25;;;;;;;;;;5059541;28;20060;-74
2022/04/28 06:48:29;;;;;;;6.72;5.13;;;;;;;;;;5057983;28;20053;-75
2022/04/28 06:50:57;;;;;;;12.63;5.80;;;;;;;;;;5061263;28;20049;-75
2022/04/28 06:53:23;;;;;;;11.65;6.00;;;;;;;;;;5059159;28;20063;-74
2022/04/28 06:55:49;;;;;;;7.22;4.82;;;;;;;;;;5056935;28;20061;-73
2022/04/28 06:58:16;;;;;;;10.88;5.47;;;;;;;;;;5053600;28;20497;-73
2022/04/28 07:00:43;;;;;;;9.93;5.00;;;;;;;;;;5059609;28;20375;-75
2022/04/28 07:03:10;;;;;;;9.07;5.10;;;;;;;;;;5059090;28;20159;-75
2022/04/28 07:05:39;;;;;;;11.88;5.07;;;;;;;;;;5059475;28;20046;-74
2022/04/28 07:08:05;;;;;;;8.75;5.40;;;;;;;;;;5059730;28;20589;-73
2022/04/28 07:10:32;;;;;;;14.07;5.07;;;;;;;;;;5060332;28;20057;-75
2022/04/28 07:12:58;;;;;;;9.57;4.55;;;;;;;;;;5060034;28;20053;-71
2022/04/28 07:15:24;;;;;;;16.35;5.15;;;;;;;;;;5057143;28;20057;-72
2022/04/28 07:17:51;;;;;;;17.02;4.60;;;;;;;;;;5071169;28;20519;-74
2022/04/28 07:20:17;;;;;;;11.50;4.32;;;;;;;;;;5054464;28;20053;-72
2022/04/28 07:22:43;;;;;;;10.98;5.10;;;;;;;;;;5067640;28;20048;-72
2022/04/28 07:25:10;;;;;;;10.95;4.82;;;;;;;;;;5071587;28;20499;-73
2022/04/28 07:27:36;;;;;;;7.38;4.72;;;;;;;;;;5055465;28;20100;-72
2022/04/28 07:30:03;;;;;;;12.35;5.35;;;;;;;;;;5061170;28;20726;-74
2022/04/28 07:32:31;;;;;;;15.95;5.03;;;;;;;;;;5060242;28;20059;-74
2022/04/28 07:34:58;;;;;;;9.57;4.55;;;;;;;;;;5067821;28;20059;-73
2022/04/28 07:37:24;;;;;;;9.93;4.63;;;;;;;;;;5059240;28;20429;-74
2022/04/28 07:39:50;;;;;;;16.45;4.10;;;;;;;;;;5066196;28;20451;-74
2022/04/28 07:42:17;;;;;;;8.02;3.88;;;;;;;;;;5060033;28;20084;-72
2022/04/28 07:44:43;;;;;;;9.65;3.85;;;;;;;;;;5059921;28;20148;-74
2022/04/28 07:47:10;;;;;;;8.50;4.35;;;;;;;;;;5061660;28;20049;-74
2022/04/28 07:49:39;;;;;;;15.07;5.28;;;;;;;;;;5059437;28;20092;-72
2022/04/28 07:52:06;;;;;;;10.40;3.75;;;;;;;;;;5063418;28;20554;-73
2022/04/28 07:54:35;;;;;;;10.13;3.33;;;;;;;;;;5068336;28;20476;-67
2022/04/28 07:57:01;;;;;;;8.60;3.88;;;;;;;;;;5063685;28;20057;-71
2022/04/28 07:59:28;;;;;;;18.02;3.92;;;;;;;;;;5069899;28;20465;-70
2022/04/28 08:01:54;;;;;;;6.20;3.40;;;;;;;;;;5059096;28;20049;-71
2022/04/28 08:04:21;;;;;;;14.27;3.78;;;;;;;;;;5058542;28;20591;-70
2022/04/28 08:06:53;;;;;;;10.35;3.90;;;;;;;;;;5060773;28;21071;-71
2022/04/28 08:09:19;;;;;;;8.05;3.80;;;;;;;;;;5060526;28;20552;-70
2022/04/28 08:11:46;;;;;;;8.82;4.63;;;;;;;;;;5057836;28;20508;-70
2022/04/28 08:14:12;;;;;;;9.88;4.32;;;;;;;;;;5057631;28;20057;-71
2022/04/28 08:16:38;;;;;;;14.60;5.10;;;;;;;;;;5057633;28;20095;-72
2022/04/28 08:19:05;;;;;;;12.82;4.00;;;;;;;;;;5052468;28;20053;-70
2022/04/28 08:21:31;;;;;;;8.10;4.55;;;;;;;;;;5060176;28;20500;-72
2022/04/28 08:23:58;;;;;;;8.15;3.50;;;;;;;;;;5057827;28;20053;-73
2022/04/28 08:26:24;;;;;;;7.82;3.50;;;;;;;;;;5058072;28;20479;-73
2022/04/28 08:28:50;;;;;;;6.07;3.58;;;;;;;;;;5055678;28;20203;-73
2022/04/28 08:31:17;;;;;;;11.98;3.85;;;;;;;;;;5054509;28;20057;-73
2022/04/28 08:33:45;;;;;;;8.52;3.67;;;;;;;;;;5056015;28;20068;-72
2022/04/28 08:36:14;;;;;;;10.60;4.57;;;;;;;;;;5065736;28;20064;-70
2022/04/28 08:38:40;;;;;;;7.78;3.45;;;;;;;;;;5060844;28;20057;-70
2022/04/28 08:41:09;;;;;;;8.63;3.88;;;;;;;;;;5069399;28;20057;-69
2022/04/28 08:43:35;;;;;;;11.40;4.28;;;;;;;;;;5070583;28;20055;-71
2022/04/28 08:48:53;;;;;;;6.85;3.60;;;;;;;;;;5055238;28;20519;-68
2022/04/28 08:51:20;;;;;;;11.60;4.55;;;;;;;;;;5058899;28;20056;-69
2022/04/28 08:53:47;;;;;;;6.72;4.05;;;;;;;;;;5060412;28;20086;-68
2022/04/28 08:56:17;;;;;;;9.07;3.58;;;;;;;;;;5056232;28;20049;-68
2022/04/28 08:58:44;;;;;;;10.13;3.88;;;;;;;;;;5063175;28;20083;-69
2022/04/28 09:01:10;;;;;;;8.23;4.07;;;;;;;;;;5063692;28;20053;-68
2022/04/28 09:03:37;;;;;;;6.28;3.55;;;;;;;;;;5071433;28;20060;-69
2022/04/28 09:06:24;;;;;;;7.45;3.30;;;;;;;;;;5062092;28;20085;-69
2022/04/28 09:08:51;;;;;;;11.43;4.40;;;;;;;;;;5060954;28;20060;-70
2022/04/28 09:11:21;;;;;;;10.43;4.50;;;;;;;;;;5058673;28;20072;-70
2022/04/28 09:14:09;;;;;;;7.95;4.07;;;;;;;;;;5059061;28;20057;-70
2022/04/28 09:16:37;;;;;;;10.35;4.13;;;;;;;;;;5058464;28;20065;-70
2022/04/28 09:19:04;;;;;;;10.10;3.80;;;;;;;;;;5066307;28;20064;-69
2022/04/28 09:21:35;;;;;;;11.15;4.70;;;;;;;;;;5063153;28;20057;-70
2022/04/28 09:24:02;;;;;;;9.57;4.75;;;;;;;;;;5063335;28;20049;-69
2022/04/28 09:26:29;;;;;;;8.32;4.68;;;;;;;;;;5064335;28;20148;-71
2022/04/28 09:29:03;;;;;;;6.85;3.97;;;;;;;;;;5064837;28;20534;-70
2022/04/28 09:31:32;;;;;;;9.00;4.35;;;;;;;;;;5061434;28;20060;-70
2022/04/28 09:34:20;;;;;;;8.95;4.43;;;;;;;;;;5056620;28;20053;-70
2022/04/28 09:36:47;;;;;;;9.75;4.20;;;;;;;;;;5057437;28;20052;-68
2022/04/28 09:42:29;;;;;;;7.18;4.57;;;;;;;;;;5063335;28;20065;-71
2022/04/28 09:44:56;;;;;;;10.95;4.28;;;;;;;;;;5064860;28;20118;-70
2022/04/28 09:47:24;;;;;;;9.57;4.88;;;;;;;;;;5062815;28;20128;-70
2022/04/28 09:49:55;;;;;;;10.13;4.40;;;;;;;;;;5058162;28;20052;-69
2022/04/28 09:52:31;;;;;;;9.25;4.30;;;;;;;;;;5060535;28;20143;-70
2022/04/28 09:54:58;;;;;;;7.38;4.95;;;;;;;;;;5073509;28;20064;-70
2022/04/28 09:57:25;;;;;;;9.27;4.35;;;;;;;;;;5068630;28;20428;-70
2022/04/28 09:59:54;;;;;;;12.93;5.72;;;;;;;;;;5068121;28;20500;-70
2022/04/28 10:02:22;;;;;;;14.13;4.63;;;;;;;;;;5065588;28;20069;-71
2022/04/28 10:04:49;;;;;;;7.78;4.18;;;;;;;;;;5070738;28;20060;-72
2022/04/28 10:07:15;;;;;;;10.13;4.70;;;;;;;;;;5072395;28;20059;-72
2022/04/28 10:09:43;;;;;;;8.35;4.55;;;;;;;;;;5057085;28;20095;-72
2022/04/28 10:12:09;;;;;;;12.07;5.18;;;;;;;;;;5066301;28;20049;-71
2022/04/28 10:14:38;;;;;;;8.80;4.05;;;;;;;;;;5066437;28;20060;-71
2022/04/28 10:17:08;;;;;;;6.13;4.10;;;;;;;;;;5060404;28;20061;-72
2022/04/28 10:19:38;;;;;;;7.30;4.20;;;;;;;;;;5060494;28;20050;-72
2022/04/28 10:22:07;;;;;;;8.18;4.25;;;;;;;;;;5061295;28;20488;-72
2022/04/28 10:33:10;;;;;;;6.20;4.13;;;;;;;;;;5066485;28;20049;-70
2022/04/28 10:35:57;;;;;;;12.48;5.22;;;;;;;;;;5063920;28;20053;-73
2022/04/28 10:38:30;;;;;;;11.05;4.50;;;;;;;;;;5065059;28;20057;-71
2022/04/28 10:41:10;;;;;;;8.15;4.07;;;;;;;;;;5066470;28;20124;-71
2022/04/28 10:43:40;;;;;;;10.32;4.57;;;;;;;;;;5063153;28;20053;-70
2022/04/28 10:46:06;;;;;;;8.35;4.95;;;;;;;;;;5060231;28;20053;-71
2022/04/28 10:48:33;;;;;;;8.77;5.13;;;;;;;;;;5070365;28;20550;-72
2022/04/28 10:51:10;;;;;;;9.82;4.18;;;;;;;;;;5058731;28;20088;-71
2022/04/28 10:54:02;;;;;;;7.72;4.60;;;;;;;;;;5066302;28;20055;-71
2022/04/28 10:56:30;;;;;;;11.00;4.90;;;;;;;;;;5069027;28;20456;-70
2022/04/28 10:59:00;;;;;;;8.32;4.28;;;;;;;;;;5060153;28;20140;-69
2022/04/28 11:01:27;;;;;;;7.90;4.72;;;;;;;;;;5067325;28;20057;-71
2022/04/28 11:03:55;;;;;;;10.75;4.57;;;;;;;;;;5064188;28;20492;-69
2022/04/28 11:06:24;;;;;;;7.40;4.68;;;;;;;;;;5065639;28;20045;-69
2022/04/28 11:08:55;;;;;;;7.28;4.53;;;;;;;;;;5067513;28;20045;-69
2022/04/28 11:11:24;;;;;;;8.93;4.15;;;;;;;;;;5070231;28;20053;-69
2022/04/28 11:13:56;;;;;;;8.10;4.30;;;;;;;;;;5065360;28;20519;-69
2022/04/28 11:16:27;;;;;;;8.82;3.90;;;;;;;;;;5070721;28;20049;-69
2022/04/28 11:18:54;;;;;;;10.02;4.72;;;;;;;;;;5057218;28;20464;-69
2022/04/28 11:21:21;;;;;;;11.32;4.40;;;;;;;;;;5067173;28;20064;-69
2022/04/28 11:23:48;;;;;;;7.75;4.57;;;;;;;;;;5072587;28;20084;-69
2022/04/28 11:26:14;;;;;;;9.40;4.13;;;;;;;;;;5068559;28;20056;-69
2022/04/28 11:28:41;;;;;;;9.50;4.07;;;;;;;;;;5069928;28;20134;-69
2022/04/28 11:31:15;;;;;;;8.90;4.45;;;;;;;;;;5069141;28;20060;-69
2022/04/28 11:33:42;;;;;;;7.53;4.35;;;;;;;;;;5058081;28;20051;-69
2022/04/28 11:36:15;;;;;;;11.20;4.68;;;;;;;;;;5065313;28;20057;-69
2022/04/28 11:38:47;;;;;;;9.90;4.13;;;;;;;;;;5065596;28;20169;-68
2022/04/28 11:41:13;;;;;;;8.25;4.72;;;;;;;;;;5065766;28;20550;-68
2022/04/28 11:43:40;;;;;;;8.82;4.82;;;;;;;;;;5068183;28;20064;-69
2022/04/28 11:46:07;;;;;;;7.15;4.40;;;;;;;;;;5063184;28;20063;-69
2022/04/28 11:48:35;;;;;;;12.65;5.18;;;;;;;;;;5064045;28;20172;-71
2022/04/28 11:51:04;;;;;;;11.93;4.30;;;;;;;;;;5059143;28;20065;-69
2022/04/28 11:53:49;;;;;;;7.13;4.50;;;;;;;;;;5058119;28;20065;-72
2022/04/28 11:56:16;;;;;;;13.10;4.95;;;;;;;;;;5067700;28;20056;-69
2022/04/28 11:58:42;;;;;;;6.05;4.50;;;;;;;;;;5071921;28;20057;-70
2022/04/28 12:01:10;;;;;;;11.27;5.20;;;;;;;;;;5057647;28;20135;-70
2022/04/28 12:03:37;;;;;;;9.98;4.32;;;;;;;;;;5057695;28;20053;-70
2022/04/28 12:06:04;;;;;;;8.18;4.35;;;;;;;;;;5059894;28;20147;-69
2022/04/28 12:08:30;;;;;;;9.55;4.75;;;;;;;;;;5059728;28;20527;-69
2022/04/28 12:19:19;;;;;;;10.23;4.68;;;;;;;;;;5065268;28;20045;-71
2022/04/28 12:19:23;;;;;;;9.15;4.13;;;;;;;;;;5069384;28;20148;-72
2022/04/28 12:21:50;;;;;;;7.85;4.47;;;;;;;;;;5058116;28;20055;-70
2022/04/28 12:24:18;;;;;;;7.80;4.22;;;;;;;;;;5058732;28;20057;-68
2022/04/28 12:26:46;;;;;;;10.05;4.82;;;;;;;;;;5065268;28;20057;-69
2022/04/28 12:29:13;;;;;;;9.68;4.85;;;;;;;;;;5057531;28;20509;-72
2022/04/28 12:31:40;;;;;;;12.35;4.88;;;;;;;;;;5060262;28;20053;-70
2022/04/28 12:34:16;;;;;;;8.43;4.43;;;;;;;;;;5058352;28;20349;-70
2022/04/28 12:36:53;;;;;;;7.63;3.97;;;;;;;;;;5058102;28;20260;-71
2022/04/28 12:39:26;;;;;;;8.02;4.40;;;;;;;;;;5054053;28;20112;-71
2022/04/28 12:41:52;;;;;;;11.52;4.32;;;;;;;;;;5058462;28;20060;-69
2022/04/28 12:44:20;;;;;;;8.32;4.60;;;;;;;;;;5058715;28;20397;-71
2022/04/28 12:46:46;;;;;;;7.63;4.25;;;;;;;;;;5060685;28;20057;-72
2022/04/28 12:49:13;;;;;;;9.48;4.88;;;;;;;;;;5057830;28;20084;-71
2022/04/28 12:51:42;;;;;;;6.22;4.45;;;;;;;;;;5067034;28;20061;-69
2022/04/28 12:54:10;;;;;;;4.93;4.43;;;;;;;;;;5061597;28;20499;-69
2022/04/28 12:56:37;;;;;;;7.38;4.93;;;;;;;;;;5062297;28;20057;-70
2022/04/28 12:59:04;;;;;;;7.72;4.70;;;;;;;;;;5069438;28;20059;-68
2022/04/28 13:01:32;;;;;;;9.52;5.18;;;;;;;;;;5054973;28;20049;-69
2022/04/28 13:04:02;;;;;;;9.23;4.82;;;;;;;;;;5059992;28;20057;-69
2022/04/28 13:06:30;;;;;;;9.43;4.90;;;;;;;;;;5059524;28;20060;-69
2022/04/28 13:08:57;;;;;;;8.05;5.30;;;;;;;;;;5062026;28;20051;-69
2022/04/28 13:11:25;;;;;;;8.45;5.05;;;;;;;;;;5057237;28;20789;-68
2022/04/28 13:13:52;;;;;;;9.00;5.13;;;;;;;;;;5059416;28;20049;-68
2022/04/28 13:16:19;;;;;;;7.70;5.60;;;;;;;;;;5059321;28;20112;-72
2022/04/28 13:18:45;;;;;;;9.73;5.13;;;;;;;;;;5055197;28;20467;-71
2022/04/28 13:21:12;;;;;;;8.80;4.80;;;;;;;;;;5070132;28;20507;-69
2022/04/28 13:23:39;;;;;;;8.30;5.20;;;;;;;;;;5061547;28;20056;-70
2022/04/28 13:26:07;;;;;;;13.43;5.55;;;;;;;;;;5069734;28;20049;-70
2022/04/28 13:28:33;;;;;;;9.50;5.30;;;;;;;;;;5074205;28;20055;-71
2022/04/28 13:31:01;;;;;;;7.28;4.45;;;;;;;;;;5074476;28;20098;-69
2022/04/28 13:33:27;;;;;;;10.27;4.75;;;;;;;;;;5074238;28;20491;-71
2022/04/28 13:35:54;;;;;;;9.23;5.53;;;;;;;;;;5063653;28;20084;-68
2022/04/28 13:38:20;;;;;;;7.68;4.82;;;;;;;;;;5067080;28;20059;-71
2022/04/28 13:40:46;;;;;;;8.05;4.57;;;;;;;;;;5062757;28;20064;-71
2022/04/28 13:43:13;;;;;;;11.65;5.03;;;;;;;;;;5061897;28;20057;-71
2022/04/28 13:45:39;;;;;;;8.65;5.07;;;;;;;;;;5062456;28;20151;-70
2022/04/28 13:48:06;;;;;;;8.90;4.65;;;;;;;;;;5061972;28;20051;-69
2022/04/28 13:50:32;;;;;;;9.27;5.18;;;;;;;;;;5062562;28;20057;-69
2022/04/28 13:52:58;;;;;;;8.27;4.32;;;;;;;;;;5063085;28;20428;-68
2022/04/28 13:55:25;;;;;;;7.57;4.63;;;;;;;;;;5061534;28;20055;-69
2022/04/28 13:57:51;;;;;;;5.43;4.25;;;;;;;;;;5071452;28;20522;-69
2022/04/28 14:00:17;;;;;;;6.32;3.90;;;;;;;;;;5073167;28;22030;-69
2022/04/28 14:02:44;;;;;;;7.10;4.10;;;;;;;;;;5059134;28;20048;-70
2022/04/28 14:05:11;;;;;;;8.02;4.32;;;;;;;;;;5061473;28;20520;-70
2022/04/28 14:07:40;;;;;;;6.38;4.25;;;;;;;;;;5060589;28;20100;-70
2022/04/28 14:10:07;;;;;;;11.30;3.90;;;;;;;;;;5062411;28;20064;-70
2022/04/28 14:12:34;;;;;;;6.80;4.00;;;;;;;;;;5065608;28;20081;-70
2022/04/28 14:15:00;;;;;;;7.13;3.60;;;;;;;;;;5064545;28;20071;-69
2022/04/28 14:17:28;;;;;;;6.57;4.05;;;;;;;;;;5060371;28;20057;-70
2022/04/28 14:19:54;;;;;;;8.15;4.25;;;;;;;;;;5066589;28;20064;-72
2022/04/28 14:22:20;;;;;;;9.45;4.00;;;;;;;;;;5060368;28;20049;-69
2022/04/28 14:24:48;;;;;;;7.25;3.70;;;;;;;;;;5067002;28;20060;-72
2022/04/28 14:27:15;;;;;;;5.13;3.90;;;;;;;;;;5073770;28;20059;-69
2022/04/28 14:29:41;;;;;;;5.03;3.58;;;;;;;;;;5073264;28;20060;-70
2022/04/28 14:32:08;;;;;;;6.15;3.60;;;;;;;;;;5073661;28;20048;-69
2022/04/28 14:34:34;;;;;;;9.18;4.13;;;;;;;;;;5069235;28;20393;-70
2022/04/28 14:37:03;;;;;;;6.90;3.75;;;;;;;;;;5072342;28;20053;-70
2022/04/28 14:39:30;;;;;;;8.13;3.53;;;;;;;;;;5067118;28;20420;-70
2022/04/28 14:41:56;;;;;;;12.95;4.40;;;;;;;;;;5068504;28;20086;-68
2022/04/28 14:44:43;;;;;;;8.90;3.42;;;;;;;;;;5064209;28;20060;-67
2022/04/28 14:47:09;;;;;;;8.25;4.00;;;;;;;;;;5065751;28;20538;-68
2022/04/28 14:52:21;;;;;;;8.90;3.43;;;;;;;;;;5062736;28;20526;-68
2022/04/28 14:54:48;;;;;;;6.90;3.70;;;;;;;;;;5070154;28;20060;-69
2022/04/28 14:57:15;;;;;;;5.72;2.70;;;;;;;;;;5061055;28;20057;-69
2022/04/28 14:59:42;;;;;;;6.70;3.30;;;;;;;;;;5061781;28;20084;-68
2022/04/28 15:02:10;;;;;;;5.30;3.22;;;;;;;;;;5066504;28;20051;-68
2022/04/28 15:04:36;;;;;;;4.78;2.97;;;;;;;;;;5061880;28;20064;-68
2022/04/28 15:07:03;;;;;;;4.00;3.15;;;;;;;;;;5061459;28;20152;-67
2022/04/28 15:09:29;;;;;;;6.78;3.25;;;;;;;;;;5059000;28;20511;-68
2022/04/28 15:11:56;;;;;;;8.90;3.17;;;;;;;;;;5066606;28;20149;-69
2022/04/28 15:14:22;;;;;;;9.65;3.30;;;;;;;;;;5062786;28;20053;-69
2022/04/28 15:16:49;;;;;;;5.20;2.92;;;;;;;;;;5072217;28;20577;-68
2022/04/28 15:19:15;;;;;;;11.57;3.28;;;;;;;;;;5070639;28;20049;-67